createdAt,value
2018-09-01T00:01:01.708Z,10.90
2018-09-01T00:07:06.717Z,10.80
2018-09-01T00:13:12.206Z,10.80
2018-09-01T00:19:17.005Z,10.70
2018-09-01T00:25:21.726Z,10.60
2018-09-01T00:31:26.391Z,10.60
2018-09-01T00:37:36.633Z,10.40
2018-09-01T00:43:42.125Z,10.30
2018-09-01T00:49:47.606Z,10.30
2018-09-01T00:55:52.298Z,10.40
2018-09-01T01:01:57.038Z,10.30
2018-09-01T01:08:02.202Z,10.30
2018-09-01T01:14:06.867Z,10.30
2018-09-01T01:20:12.280Z,10.20
2018-09-01T01:26:17.261Z,10.20
2018-09-01T01:32:22.118Z,10.20
2018-09-01T01:38:26.860Z,10.10
2018-09-01T01:44:32.045Z,10.10
2018-09-01T01:50:36.853Z,10.00
2018-09-01T01:56:42.447Z,10.00
2018-09-01T02:02:47.806Z,9.90
2018-09-01T02:08:52.628Z,9.90
2018-09-01T02:14:57.500Z,9.80
2018-09-01T02:21:02.257Z,9.80
2018-09-01T02:27:07.485Z,9.70
2018-09-01T02:33:13.596Z,9.80
2018-09-01T02:39:18.319Z,9.70
2018-09-01T02:45:23.130Z,9.70
2018-09-01T02:51:27.833Z,9.60
2018-09-01T02:57:32.664Z,9.60
2018-09-01T03:03:37.440Z,9.60
2018-09-01T03:09:42.242Z,9.50
2018-09-01T03:15:47.448Z,9.40
2018-09-01T03:21:53.368Z,9.40
2018-09-01T03:27:58.225Z,9.20
2018-09-01T03:34:03.282Z,9.10
2018-09-01T03:40:08.701Z,9.00
2018-09-01T03:46:14.303Z,9.00
2018-09-01T03:52:19.116Z,8.90
2018-09-01T03:58:25.388Z,8.90
2018-09-01T04:04:30.362Z,8.80
2018-09-01T04:10:35.212Z,8.80
2018-09-01T04:16:41.931Z,8.80
2018-09-01T04:22:46.943Z,8.80
2018-09-01T04:28:51.639Z,8.80
2018-09-01T04:34:56.755Z,8.80
2018-09-01T04:41:01.647Z,8.80
2018-09-01T04:47:06.506Z,8.70
2018-09-01T04:53:12.088Z,8.70
2018-09-01T04:59:17.295Z,8.60
2018-09-01T05:05:22.034Z,8.60
2018-09-01T05:11:27.168Z,8.60
2018-09-01T05:17:32.335Z,8.70
2018-09-01T05:23:37.110Z,8.70
2018-09-01T05:29:43.030Z,8.90
2018-09-01T05:35:48.301Z,9.00
2018-09-01T05:41:53.111Z,9.10
2018-09-01T05:47:57.884Z,9.30
2018-09-01T05:54:03.069Z,9.40
2018-09-01T06:00:09.769Z,9.60
2018-09-01T06:06:14.793Z,9.80
2018-09-01T06:12:19.686Z,10.00
2018-09-01T06:18:24.492Z,10.20
2018-09-01T06:24:29.282Z,10.30
2018-09-01T06:30:36.260Z,10.50
2018-09-01T06:36:42.313Z,10.90
2018-09-01T06:42:47.626Z,11.40
2018-09-01T06:48:52.665Z,11.90
2018-09-01T06:54:57.410Z,13.20
2018-09-01T07:01:02.209Z,17.20
2018-09-01T07:07:06.933Z,20.40
2018-09-01T07:13:13.479Z,22.20
2018-09-01T07:19:18.396Z,21.80
2018-09-01T07:25:23.316Z,19.90
2018-09-01T07:31:28.725Z,18.10
2018-09-01T07:37:34.037Z,16.80
2018-09-01T07:43:39.118Z,16.40
2018-09-01T07:49:44.520Z,16.40
2018-09-01T07:55:49.806Z,16.10
2018-09-01T08:01:54.552Z,16.00
2018-09-01T08:07:59.569Z,16.00
2018-09-01T08:14:04.539Z,16.20
2018-09-01T08:20:10.561Z,16.70
2018-09-01T08:26:16.476Z,17.20
2018-09-01T08:32:22.037Z,17.30
2018-09-01T08:38:27.056Z,17.30
2018-09-01T08:44:31.726Z,17.90
2018-09-01T08:50:36.581Z,18.50
2018-09-01T08:56:42.753Z,18.70
2018-09-01T09:02:47.801Z,18.40
2018-09-01T09:08:52.670Z,19.40
2018-09-01T09:14:57.445Z,20.40
2018-09-01T09:21:02.703Z,21.00
2018-09-01T09:27:09.387Z,21.60
2018-09-01T09:33:14.854Z,21.80
2018-09-01T09:39:19.565Z,21.10
2018-09-01T09:45:24.837Z,21.10
2018-09-01T09:51:29.812Z,20.80
2018-09-01T09:57:34.825Z,20.90
2018-09-01T10:03:40.709Z,22.70
2018-09-01T10:09:46.038Z,24.60
2018-09-01T10:15:50.813Z,25.70
2018-09-01T10:21:56.178Z,24.10
2018-09-01T10:28:00.953Z,25.30
2018-09-01T10:34:06.145Z,26.80
2018-09-01T10:40:12.082Z,27.40
2018-09-01T10:46:17.458Z,28.00
2018-09-01T10:52:22.243Z,28.30
2018-09-01T10:58:27.019Z,30.50
2018-09-01T11:04:32.181Z,29.40
2018-09-01T11:10:37.102Z,29.90
2018-09-01T11:16:43.122Z,30.10
2018-09-01T11:22:48.101Z,29.30
2018-09-01T11:28:52.953Z,26.80
2018-09-01T11:34:57.936Z,26.50
2018-09-01T11:41:02.850Z,28.10
2018-09-01T11:47:07.687Z,29.90
2018-09-01T11:53:12.874Z,30.90
2018-09-01T11:59:17.920Z,30.00
2018-09-01T12:05:23.014Z,29.80
2018-09-01T12:11:27.798Z,29.70
2018-09-01T12:17:32.468Z,30.90
2018-09-01T12:23:37.441Z,30.30
2018-09-01T12:29:42.590Z,30.30
2018-09-01T12:35:47.351Z,30.50
2018-09-01T12:41:52.412Z,31.10
2018-09-01T12:47:57.113Z,30.80
2018-09-01T12:54:02.050Z,31.50
2018-09-01T13:00:07.705Z,32.00
2018-09-01T13:06:13.982Z,31.20
2018-09-01T13:12:19.038Z,31.90
2018-09-01T13:18:24.019Z,31.60
2018-09-01T13:24:29.081Z,30.20
2018-09-01T13:30:34.220Z,30.80
2018-09-01T13:36:39.060Z,28.80
2018-09-01T13:42:44.280Z,29.70
2018-09-01T13:48:49.286Z,28.20
2018-09-01T13:54:54.952Z,27.70
2018-09-01T14:00:59.892Z,28.40
2018-09-01T14:07:04.909Z,30.10
2018-09-01T14:13:11.549Z,30.90
2018-09-01T14:19:16.934Z,31.10
2018-09-01T14:25:21.864Z,32.40
2018-09-01T14:31:26.726Z,30.00
2018-09-01T14:37:31.896Z,30.00
2018-09-01T14:43:36.634Z,30.10
2018-09-01T14:49:44.064Z,30.00
2018-09-01T14:55:48.859Z,29.90
2018-09-01T15:01:53.866Z,31.60
2018-09-01T15:07:58.737Z,28.70
2018-09-01T15:14:04.028Z,26.60
2018-09-01T15:20:09.645Z,25.10
2018-09-01T15:26:14.924Z,27.10
2018-09-01T15:32:19.852Z,29.50
2018-09-01T15:38:24.566Z,30.80
2018-09-01T15:44:29.397Z,31.50
2018-09-01T15:50:34.265Z,29.80
2018-09-01T15:56:39.348Z,27.70
2018-09-01T16:02:44.419Z,26.10
2018-09-01T16:08:49.175Z,27.60
2018-09-01T16:14:54.044Z,26.20
2018-09-01T16:20:58.799Z,24.90
2018-09-01T16:27:03.645Z,25.00
2018-09-01T16:33:09.077Z,27.00
2018-09-01T16:39:14.693Z,28.20
2018-09-01T16:45:19.919Z,29.70
2018-09-01T16:51:24.951Z,30.30
2018-09-01T16:57:29.797Z,31.00
2018-09-01T17:03:34.539Z,29.40
2018-09-01T17:09:39.597Z,28.00
2018-09-01T17:15:45.308Z,27.30
2018-09-01T17:21:50.220Z,26.50
2018-09-01T17:27:55.423Z,26.90
2018-09-01T17:34:00.141Z,26.70
2018-09-01T17:40:05.129Z,26.10
2018-09-01T17:46:09.884Z,25.60
2018-09-01T17:52:15.375Z,24.90
2018-09-01T17:58:20.319Z,23.90
2018-09-01T18:04:25.312Z,22.60
2018-09-01T18:10:30.111Z,21.40
2018-09-01T18:16:34.840Z,20.30
2018-09-01T18:22:39.854Z,19.60
2018-09-01T18:37:10.499Z,18.70
2018-09-01T18:43:16.791Z,18.10
2018-09-01T18:49:21.954Z,17.80
2018-09-01T18:55:26.874Z,17.50
2018-09-01T19:01:32.051Z,17.30
2018-09-01T19:07:37.063Z,17.20
2018-09-01T19:13:43.625Z,17.10
2018-09-01T19:19:48.560Z,17.00
2018-09-01T19:25:53.351Z,16.90
2018-09-01T19:31:58.157Z,16.80
2018-09-01T19:38:03.027Z,16.60
2018-09-01T19:44:07.812Z,16.50
2018-09-01T19:50:13.272Z,16.40
2018-09-01T19:56:18.608Z,16.30
2018-09-01T20:02:23.576Z,16.30
2018-09-01T20:08:28.428Z,16.40
2018-09-01T20:14:33.513Z,16.60
2018-09-01T20:20:39.542Z,16.60
2018-09-01T20:26:44.709Z,16.50
2018-09-01T20:32:49.931Z,16.40
2018-09-01T20:38:54.714Z,16.10
2018-09-01T20:44:59.593Z,16.00
2018-09-01T20:51:04.515Z,15.90
2018-09-01T20:57:10.588Z,15.80
2018-09-01T21:03:17.052Z,15.80
2018-09-01T21:09:22.377Z,16.00
2018-09-01T21:15:27.445Z,16.20
2018-09-01T21:21:32.490Z,16.20
2018-09-01T21:27:37.730Z,16.20
2018-09-01T21:33:43.738Z,16.20
2018-09-01T21:39:48.784Z,16.10
2018-09-01T21:45:53.765Z,16.00
2018-09-01T21:51:59.403Z,15.90
2018-09-01T21:58:04.261Z,15.90
2018-09-01T22:04:10.146Z,15.80
2018-09-01T22:10:16.016Z,15.80
2018-09-01T22:16:20.814Z,15.80
2018-09-01T22:22:25.599Z,15.70
2018-09-01T22:28:30.987Z,15.50
2018-09-01T22:34:36.040Z,15.40
2018-09-01T22:40:42.607Z,15.20
2018-09-01T22:46:55.304Z,15.10
2018-09-01T22:52:59.996Z,15.20
2018-09-01T22:59:04.830Z,15.10
2018-09-01T23:05:11.036Z,15.00
2018-09-01T23:11:16.606Z,15.00
2018-09-01T23:17:21.468Z,14.90
2018-09-01T23:23:26.768Z,15.00
2018-09-01T23:29:31.719Z,15.00
2018-09-01T23:35:36.734Z,15.00
2018-09-01T23:41:42.034Z,15.00
2018-09-01T23:47:47.966Z,15.20
2018-09-01T23:53:53.109Z,15.30
2018-09-01T23:59:57.859Z,15.40
